Terminal Aerodrome Forecast
Issued by NWS

Home | Current Version | Previous Version | Graphics & Text | Print | Product List | Glossary On
Versions: 1 2 3 4 5 6 7 8 9 10 11 12 13 14 15 16 17 18 19 20 21 22 23 24 25 26 27 28 29 30
000
FTUS43 KABR 191120
TAFATY
TAF
KATY 191120Z 1912/2012 03016KT P6SM FEW011 OVC060
      TEMPO 1912/1916 2SM -SN BLSN OVC025
     FM191600 02018G25KT P6SM -SN OVC030
     FM200000 03017G24KT 5SM -SN BLSN OVC020
     FM200400 02014KT 1SM -SN BLSN OVC015=

USA.gov is the U.S. government's official web portal to all federal, state and local government web resources and services.